Aviation Digital Data Service (ADDS)

Output produced by METARs form (0641 UTC 19 February 2019)
found at http://www.aviationweather.gov/metar/data/
 
METAR text: EBBE 190625Z 25008KT 9999 SCT009 BKN011 07/05 Q1019 GRN GRN TEMPO YLO
Conditions at: EBBE (BEAUVECHAIN (BAF, BE) observed 0625 UTC 19 February 2019
Temperature: 7.0°C (45°F)
Dewpoint: 5.0°C (41°F) [RH = 87%]
Pressure (altimeter): 30.09 inches Hg (1019.0 mb)
Winds: from the WSW (250 degrees) at 9 MPH (8 knots; 4.1 m/s)
Visibility: 6 or more miles (10+ km)
Ceiling: 1100 feet AGL
Clouds: scattered clouds at 900 feet AGL
broken clouds at 1100 feet AGL
Weather: no significant weather observed at this time

METAR text: EBBE 190555Z 24009KT 9999 SCT008 BKN010 07/05 Q1018 GRN GRN TEMPO YLO
Conditions at: EBBE (BEAUVECHAIN (BAF, BE) observed 0555 UTC 19 February 2019
Temperature: 7.0°C (45°F)
Dewpoint: 5.0°C (41°F) [RH = 87%]
Pressure (altimeter): 30.06 inches Hg (1018.0 mb)
Winds: from the WSW (240 degrees) at 10 MPH (9 knots; 4.6 m/s)
Visibility: 6 or more miles (10+ km)
Ceiling: 1000 feet AGL
Clouds: scattered clouds at 800 feet AGL
broken clouds at 1000 feet AGL
Weather: no significant weather observed at this time

METAR text: EBBE 190554Z 24009KT 9999 SCT008 BKN010 07/05 Q1018 GRN GRN TEMPO YLO
Conditions at: EBBE (BEAUVECHAIN (BAF, BE) observed 0554 UTC 19 February 2019
Temperature: 7.0°C (45°F)
Dewpoint: 5.0°C (41°F) [RH = 87%]
Pressure (altimeter): 30.06 inches Hg (1018.0 mb)
Winds: from the WSW (240 degrees) at 10 MPH (9 knots; 4.6 m/s)
Visibility: 6 or more miles (10+ km)
Ceiling: 1000 feet AGL
Clouds: scattered clouds at 800 feet AGL
broken clouds at 1000 feet AGL
Weather: no significant weather observed at this time

METAR text: EBBE 190525Z AUTO 23008KT 9999 SCT009/// OVC011/// 07/05 Q1018 GRN
Conditions at: EBBE (BEAUVECHAIN (BAF, BE) observed 0525 UTC 19 February 2019
Temperature: 7.0°C (45°F)
Dewpoint: 5.0°C (41°F) [RH = 87%]
Pressure (altimeter): 30.06 inches Hg (1018.0 mb)
Winds: from the SW (230 degrees) at 9 MPH (8 knots; 4.1 m/s)
Visibility: 6 or more miles (10+ km)
Ceiling: 1100 feet AGL
Clouds: scattered clouds at 900 feet AGL
overcast cloud deck at 1100 feet AGL
Weather: no significant weather observed at this time

METAR text: EBBE 190455Z AUTO 23008KT 9999 SCT011/// BKN015/// OVC030/// 07/05 Q1018 GRN
Conditions at: EBBE (BEAUVECHAIN (BAF, BE) observed 0455 UTC 19 February 2019
Temperature: 7.0°C (45°F)
Dewpoint: 5.0°C (41°F) [RH = 87%]
Pressure (altimeter): 30.06 inches Hg (1018.0 mb)
Winds: from the SW (230 degrees) at 9 MPH (8 knots; 4.1 m/s)
Visibility: 6 or more miles (10+ km)
Ceiling: 1500 feet AGL
Clouds: scattered clouds at 1100 feet AGL
broken clouds at 1500 feet AGL
overcast cloud deck at 3000 feet AGL
Weather: no significant weather observed at this time

METAR text: EBBE 190433Z AUTO 23007KT 9999 SCT012/// BKN031/// BKN100/// 07/05 Q1018 GRN
Conditions at: EBBE (BEAUVECHAIN (BAF, BE) observed 0433 UTC 19 February 2019
Temperature: 7.0°C (45°F)
Dewpoint: 5.0°C (41°F) [RH = 87%]
Pressure (altimeter): 30.06 inches Hg (1018.0 mb)
Winds: from the SW (230 degrees) at 8 MPH (7 knots; 3.6 m/s)
Visibility: 6 or more miles (10+ km)
Ceiling: 3100 feet AGL
Clouds: scattered clouds at 1200 feet AGL
broken clouds at 3100 feet AGL
broken clouds at 10000 feet AGL
Weather: no significant weather observed at this time

METAR text: EBBE 190425Z AUTO 23006KT 9999 FEW012/// SCT030/// BKN100/// 07/05 Q1018 BLU
Conditions at: EBBE (BEAUVECHAIN (BAF, BE) observed 0425 UTC 19 February 2019
Temperature: 7.0°C (45°F)
Dewpoint: 5.0°C (41°F) [RH = 87%]
Pressure (altimeter): 30.06 inches Hg (1018.0 mb)
Winds: from the SW (230 degrees) at 7 MPH (6 knots; 3.1 m/s)
Visibility: 6 or more miles (10+ km)
Ceiling: 10000 feet AGL
Clouds: few clouds at 1200 feet AGL
scattered clouds at 3000 feet AGL
broken clouds at 10000 feet AGL
Weather: no significant weather observed at this time

METAR text: EBBE 190413Z AUTO 24006KT 9999 FEW011/// OVC100/// 07/05 Q1018 BLU
Conditions at: EBBE (BEAUVECHAIN (BAF, BE) observed 0413 UTC 19 February 2019
Temperature: 7.0°C (45°F)
Dewpoint: 5.0°C (41°F) [RH = 87%]
Pressure (altimeter): 30.06 inches Hg (1018.0 mb)
Winds: from the WSW (240 degrees) at 7 MPH (6 knots; 3.1 m/s)
Visibility: 6 or more miles (10+ km)
Ceiling: 10000 feet AGL
Clouds: few clouds at 1100 feet AGL
overcast cloud deck at 10000 feet AGL
Weather: no significant weather observed at this time

METAR text: EBBE 190355Z AUTO 23007KT 9999 SCT011/// BKN095/// 07/05 Q1018 GRN
Conditions at: EBBE (BEAUVECHAIN (BAF, BE) observed 0355 UTC 19 February 2019
Temperature: 7.0°C (45°F)
Dewpoint: 5.0°C (41°F) [RH = 87%]
Pressure (altimeter): 30.06 inches Hg (1018.0 mb)
Winds: from the SW (230 degrees) at 8 MPH (7 knots; 3.6 m/s)
Visibility: 6 or more miles (10+ km)
Ceiling: 9500 feet AGL
Clouds: scattered clouds at 1100 feet AGL
broken clouds at 9500 feet AGL
Weather: no significant weather observed at this time

METAR text: EBBE 190325Z AUTO 24006KT 9999 SCT011/// OVC095/// 07/05 Q1017 GRN
Conditions at: EBBE (BEAUVECHAIN (BAF, BE) observed 0325 UTC 19 February 2019
Temperature: 7.0°C (45°F)
Dewpoint: 5.0°C (41°F) [RH = 87%]
Pressure (altimeter): 30.03 inches Hg (1017.0 mb)
Winds: from the WSW (240 degrees) at 7 MPH (6 knots; 3.1 m/s)
Visibility: 6 or more miles (10+ km)
Ceiling: 9500 feet AGL
Clouds: scattered clouds at 1100 feet AGL
overcast cloud deck at 9500 feet AGL
Weather: no significant weather observed at this time

METAR text: EBBE 190322Z AUTO 24006KT 9999 FEW011/// BKN085/// 07/05 Q1018 BLU
Conditions at: EBBE (BEAUVECHAIN (BAF, BE) observed 0322 UTC 19 February 2019
Temperature: 7.0°C (45°F)
Dewpoint: 5.0°C (41°F) [RH = 87%]
Pressure (altimeter): 30.06 inches Hg (1018.0 mb)
Winds: from the WSW (240 degrees) at 7 MPH (6 knots; 3.1 m/s)
Visibility: 6 or more miles (10+ km)
Ceiling: 8500 feet AGL
Clouds: few clouds at 1100 feet AGL
broken clouds at 8500 feet AGL
Weather: no significant weather observed at this time

METAR text: EBBE 190255Z AUTO 24006KT 9999 FEW012/// SCT015/// BKN080/// 07/05 Q1017 WHT
Conditions at: EBBE (BEAUVECHAIN (BAF, BE) observed 0255 UTC 19 February 2019
Temperature: 7.0°C (45°F)
Dewpoint: 5.0°C (41°F) [RH = 87%]
Pressure (altimeter): 30.03 inches Hg (1017.0 mb)
Winds: from the WSW (240 degrees) at 7 MPH (6 knots; 3.1 m/s)
Visibility: 6 or more miles (10+ km)
Ceiling: 8000 feet AGL
Clouds: few clouds at 1200 feet AGL
scattered clouds at 1500 feet AGL
broken clouds at 8000 feet AGL
Weather: no significant weather observed at this time

METAR text: EBBE 190252Z AUTO 23006KT 9999 FEW012/// SCT015/// BKN080/// 07/05 Q1017 WHT
Conditions at: EBBE (BEAUVECHAIN (BAF, BE) observed 0252 UTC 19 February 2019
Temperature: 7.0°C (45°F)
Dewpoint: 5.0°C (41°F) [RH = 87%]
Pressure (altimeter): 30.03 inches Hg (1017.0 mb)
Winds: from the SW (230 degrees) at 7 MPH (6 knots; 3.1 m/s)
Visibility: 6 or more miles (10+ km)
Ceiling: 8000 feet AGL
Clouds: few clouds at 1200 feet AGL
scattered clouds at 1500 feet AGL
broken clouds at 8000 feet AGL
Weather: no significant weather observed at this time

METAR text: EBBE 190247Z AUTO 23006KT 9999 FEW012/// BKN070/// 07/05 Q1017 BLU
Conditions at: EBBE (BEAUVECHAIN (BAF, BE) observed 0247 UTC 19 February 2019
Temperature: 7.0°C (45°F)
Dewpoint: 5.0°C (41°F) [RH = 87%]
Pressure (altimeter): 30.03 inches Hg (1017.0 mb)
Winds: from the SW (230 degrees) at 7 MPH (6 knots; 3.1 m/s)
Visibility: 6 or more miles (10+ km)
Ceiling: 7000 feet AGL
Clouds: few clouds at 1200 feet AGL
broken clouds at 7000 feet AGL
Weather: no significant weather observed at this time

METAR text: EBBE 190233Z AUTO 24006KT 9999 SCT012/// OVC065/// 07/05 Q1017 GRN
Conditions at: EBBE (BEAUVECHAIN (BAF, BE) observed 0233 UTC 19 February 2019
Temperature: 7.0°C (45°F)
Dewpoint: 5.0°C (41°F) [RH = 87%]
Pressure (altimeter): 30.03 inches Hg (1017.0 mb)
Winds: from the WSW (240 degrees) at 7 MPH (6 knots; 3.1 m/s)
Visibility: 6 or more miles (10+ km)
Ceiling: 6500 feet AGL
Clouds: scattered clouds at 1200 feet AGL
overcast cloud deck at 6500 feet AGL
Weather: no significant weather observed at this time

METAR text: EBBE 190225Z AUTO 24006KT 9999 -DZ FEW012/// SCT015/// OVC065/// 07/05 Q1018 WHT
Conditions at: EBBE (BEAUVECHAIN (BAF, BE) observed 0225 UTC 19 February 2019
Temperature: 7.0°C (45°F)
Dewpoint: 5.0°C (41°F) [RH = 87%]
Pressure (altimeter): 30.06 inches Hg (1018.0 mb)
Winds: from the WSW (240 degrees) at 7 MPH (6 knots; 3.1 m/s)
Visibility: 6 or more miles (10+ km)
Ceiling: 6500 feet AGL
Clouds: few clouds at 1200 feet AGL
scattered clouds at 1500 feet AGL
overcast cloud deck at 6500 feet AGL
Weather: -DZ  (light drizzle)

METAR text: EBBE 190155Z AUTO 24005KT 9999 BKN050/// OVC080/// 07/05 Q1018 BLU
Conditions at: EBBE (BEAUVECHAIN (BAF, BE) observed 0155 UTC 19 February 2019
Temperature: 7.0°C (45°F)
Dewpoint: 5.0°C (41°F) [RH = 87%]
Pressure (altimeter): 30.06 inches Hg (1018.0 mb)
Winds: from the WSW (240 degrees) at 6 MPH (5 knots; 2.6 m/s)
Visibility: 6 or more miles (10+ km)
Ceiling: 5000 feet AGL
Clouds: broken clouds at 5000 feet AGL
overcast cloud deck at 8000 feet AGL
Weather: no significant weather observed at this time

METAR text: EBBE 190125Z AUTO 25006KT 9999 FEW040/// BKN047/// BKN070/// 07/05 Q1017 BLU
Conditions at: EBBE (BEAUVECHAIN (BAF, BE) observed 0125 UTC 19 February 2019
Temperature: 7.0°C (45°F)
Dewpoint: 5.0°C (41°F) [RH = 87%]
Pressure (altimeter): 30.03 inches Hg (1017.0 mb)
Winds: from the WSW (250 degrees) at 7 MPH (6 knots; 3.1 m/s)
Visibility: 6 or more miles (10+ km)
Ceiling: 4700 feet AGL
Clouds: few clouds at 4000 feet AGL
broken clouds at 4700 feet AGL
broken clouds at 7000 feet AGL
Weather: no significant weather observed at this time

METAR text: EBBE 190055Z AUTO 26006KT 9999 FEW014/// 07/05 Q1017 BLU
Conditions at: EBBE (BEAUVECHAIN (BAF, BE) observed 0055 UTC 19 February 2019
Temperature: 7.0°C (45°F)
Dewpoint: 5.0°C (41°F) [RH = 87%]
Pressure (altimeter): 30.03 inches Hg (1017.0 mb)
Winds: from the W (260 degrees) at 7 MPH (6 knots; 3.1 m/s)
Visibility: 6 or more miles (10+ km)
Ceiling: at least 12,000 feet AGL
Clouds: few clouds at 1400 feet AGL
Weather: no significant weather observed at this time

METAR text: EBBE 190025Z AUTO 27005KT 9999 FEW013/// SCT100/// 07/04 Q1017 BLU
Conditions at: EBBE (BEAUVECHAIN (BAF, BE) observed 0025 UTC 19 February 2019
Temperature: 7.0°C (45°F)
Dewpoint: 4.0°C (39°F) [RH = 81%]
Pressure (altimeter): 30.03 inches Hg (1017.0 mb)
Winds: from the W (270 degrees) at 6 MPH (5 knots; 2.6 m/s)
Visibility: 6 or more miles (10+ km)
Ceiling: at least 12,000 feet AGL
Clouds: few clouds at 1300 feet AGL
scattered clouds at 10000 feet AGL
Weather: no significant weather observed at this time

METAR text: EBBE 182355Z AUTO 26007KT 9999 FEW017/// SCT027/// BKN036/// 08/04 Q1017 BLU
Conditions at: EBBE (BEAUVECHAIN (BAF, BE) observed 2355 UTC 18 February 2019
Temperature: 8.0°C (46°F)
Dewpoint: 4.0°C (39°F) [RH = 76%]
Pressure (altimeter): 30.03 inches Hg (1017.0 mb)
Winds: from the W (260 degrees) at 8 MPH (7 knots; 3.6 m/s)
Visibility: 6 or more miles (10+ km)
Ceiling: 3600 feet AGL
Clouds: few clouds at 1700 feet AGL
scattered clouds at 2700 feet AGL
broken clouds at 3600 feet AGL
Weather: no significant weather observed at this time

METAR text: EBBE 182325Z AUTO 25008KT 9999 FEW016/// SCT029/// BKN033/// 08/03 Q1017 BLU
Conditions at: EBBE (BEAUVECHAIN (BAF, BE) observed 2325 UTC 18 February 2019
Temperature: 8.0°C (46°F)
Dewpoint: 3.0°C (37°F) [RH = 71%]
Pressure (altimeter): 30.03 inches Hg (1017.0 mb)
Winds: from the WSW (250 degrees) at 9 MPH (8 knots; 4.1 m/s)
Visibility: 6 or more miles (10+ km)
Ceiling: 3300 feet AGL
Clouds: few clouds at 1600 feet AGL
scattered clouds at 2900 feet AGL
broken clouds at 3300 feet AGL
Weather: no significant weather observed at this time

METAR text: EBBE 182312Z AUTO 24009KT 9999 SCT016/// BKN170/// 08/03 Q1017 WHT
Conditions at: EBBE (BEAUVECHAIN (BAF, BE) observed 2312 UTC 18 February 2019
Temperature: 8.0°C (46°F)
Dewpoint: 3.0°C (37°F) [RH = 71%]
Pressure (altimeter): 30.03 inches Hg (1017.0 mb)
Winds: from the WSW (240 degrees) at 10 MPH (9 knots; 4.6 m/s)
Visibility: 6 or more miles (10+ km)
Ceiling: 17000 feet AGL
Clouds: scattered clouds at 1600 feet AGL
broken clouds at 17000 feet AGL
Weather: no significant weather observed at this time

METAR text: EBBE 182255Z AUTO 23010KT 9999 BKN170/// 08/03 Q1016 BLU
Conditions at: EBBE (BEAUVECHAIN (BAF, BE) observed 2255 UTC 18 February 2019
Temperature: 8.0°C (46°F)
Dewpoint: 3.0°C (37°F) [RH = 71%]
Pressure (altimeter): 30.00 inches Hg (1016.0 mb)
Winds: from the SW (230 degrees) at 12 MPH (10 knots; 5.1 m/s)
Visibility: 6 or more miles (10+ km)
Ceiling: 17000 feet AGL
Clouds: broken clouds at 17000 feet AGL
Weather: no significant weather observed at this time

METAR text: EBBE 182225Z AUTO 21011KT 9999 BKN180/// 09/03 Q1016 BLU
Conditions at: EBBE (BEAUVECHAIN (BAF, BE) observed 2225 UTC 18 February 2019
Temperature: 9.0°C (48°F)
Dewpoint: 3.0°C (37°F) [RH = 66%]
Pressure (altimeter): 30.00 inches Hg (1016.0 mb)
Winds: from the SSW (210 degrees) at 13 MPH (11 knots; 5.7 m/s)
Visibility: 6 or more miles (10+ km)
Ceiling: 18000 feet AGL
Clouds: broken clouds at 18000 feet AGL
Weather: no significant weather observed at this time

METAR text: EBBE 182155Z AUTO 20008KT 9999 BKN170/// 09/03 Q1016 BLU
Conditions at: EBBE (BEAUVECHAIN (BAF, BE) observed 2155 UTC 18 February 2019
Temperature: 9.0°C (48°F)
Dewpoint: 3.0°C (37°F) [RH = 66%]
Pressure (altimeter): 30.00 inches Hg (1016.0 mb)
Winds: from the SSW (200 degrees) at 9 MPH (8 knots; 4.1 m/s)
Visibility: 6 or more miles (10+ km)
Ceiling: 17000 feet AGL
Clouds: broken clouds at 17000 feet AGL
Weather: no significant weather observed at this time

METAR text: EBBE 182125Z AUTO 20010KT 9999 BKN180/// 09/03 Q1016 BLU
Conditions at: EBBE (BEAUVECHAIN (BAF, BE) observed 2125 UTC 18 February 2019
Temperature: 9.0°C (48°F)
Dewpoint: 3.0°C (37°F) [RH = 66%]
Pressure (altimeter): 30.00 inches Hg (1016.0 mb)
Winds: from the SSW (200 degrees) at 12 MPH (10 knots; 5.1 m/s)
Visibility: 6 or more miles (10+ km)
Ceiling: 18000 feet AGL
Clouds: broken clouds at 18000 feet AGL
Weather: no significant weather observed at this time

METAR text: EBBE 182055Z AUTO 21010KT 9999 FEW200/// 09/03 Q1016 BLU
Conditions at: EBBE (BEAUVECHAIN (BAF, BE) observed 2055 UTC 18 February 2019
Temperature: 9.0°C (48°F)
Dewpoint: 3.0°C (37°F) [RH = 66%]
Pressure (altimeter): 30.00 inches Hg (1016.0 mb)
Winds: from the SSW (210 degrees) at 12 MPH (10 knots; 5.1 m/s)
Visibility: 6 or more miles (10+ km)
Ceiling: at least 12,000 feet AGL
Clouds: few clouds at 20000 feet AGL
Weather: no significant weather observed at this time

METAR text: EBBE 182025Z 21012KT 9999 BKN180 09/03 Q1016 BLU BLU
Conditions at: EBBE (BEAUVECHAIN (BAF, BE) observed 2025 UTC 18 February 2019
Temperature: 9.0°C (48°F)
Dewpoint: 3.0°C (37°F) [RH = 66%]
Pressure (altimeter): 30.00 inches Hg (1016.0 mb)
Winds: from the SSW (210 degrees) at 14 MPH (12 knots; 6.2 m/s)
Visibility: 6 or more miles (10+ km)
Ceiling: 18000 feet AGL
Clouds: broken clouds at 18000 feet AGL
Weather: no significant weather observed at this time

METAR text: EBBE 181955Z 20009KT 9999 BKN200 09/02 Q1016 BLU BLU
Conditions at: EBBE (BEAUVECHAIN (BAF, BE) observed 1955 UTC 18 February 2019
Temperature: 9.0°C (48°F)
Dewpoint: 2.0°C (36°F) [RH = 61%]
Pressure (altimeter): 30.00 inches Hg (1016.0 mb)
Winds: from the SSW (200 degrees) at 10 MPH (9 knots; 4.6 m/s)
Visibility: 6 or more miles (10+ km)
Ceiling: 20000 feet AGL
Clouds: broken clouds at 20000 feet AGL
Weather: no significant weather observed at this time

METAR text: EBBE 181925Z 19009KT 9999 BKN200 10/02 Q1016 BLU BLU
Conditions at: EBBE (BEAUVECHAIN (BAF, BE) observed 1925 UTC 18 February 2019
Temperature: 10.0°C (50°F)
Dewpoint: 2.0°C (36°F) [RH = 57%]
Pressure (altimeter): 30.00 inches Hg (1016.0 mb)
Winds: from the S (190 degrees) at 10 MPH (9 knots; 4.6 m/s)
Visibility: 6 or more miles (10+ km)
Ceiling: 20000 feet AGL
Clouds: broken clouds at 20000 feet AGL
Weather: no significant weather observed at this time

METAR text: EBBE 181855Z 20007KT 9999 BKN200 09/01 Q1016 BLU BLU
Conditions at: EBBE (BEAUVECHAIN (BAF, BE) observed 1855 UTC 18 February 2019
Temperature: 9.0°C (48°F)
Dewpoint: 1.0°C (34°F) [RH = 57%]
Pressure (altimeter): 30.00 inches Hg (1016.0 mb)
Winds: from the SSW (200 degrees) at 8 MPH (7 knots; 3.6 m/s)
Visibility: 6 or more miles (10+ km)
Ceiling: 20000 feet AGL
Clouds: broken clouds at 20000 feet AGL
Weather: no significant weather observed at this time

METAR text: EBBE 181825Z 20008KT 9999 BKN200 10/01 Q1016 BLU BLU
Conditions at: EBBE (BEAUVECHAIN (BAF, BE) observed 1825 UTC 18 February 2019
Temperature: 10.0°C (50°F)
Dewpoint: 1.0°C (34°F) [RH = 53%]
Pressure (altimeter): 30.00 inches Hg (1016.0 mb)
Winds: from the SSW (200 degrees) at 9 MPH (8 knots; 4.1 m/s)
Visibility: 6 or more miles (10+ km)
Ceiling: 20000 feet AGL
Clouds: broken clouds at 20000 feet AGL
Weather: no significant weather observed at this time

METAR text: EBBE 181755Z 20007KT 9999 FEW240 10/01 Q1016 BLU BLU
Conditions at: EBBE (BEAUVECHAIN (BAF, BE) observed 1755 UTC 18 February 2019
Temperature: 10.0°C (50°F)
Dewpoint: 1.0°C (34°F) [RH = 53%]
Pressure (altimeter): 30.00 inches Hg (1016.0 mb)
Winds: from the SSW (200 degrees) at 8 MPH (7 knots; 3.6 m/s)
Visibility: 6 or more miles (10+ km)
Ceiling: at least 12,000 feet AGL
Clouds: few clouds at 24000 feet AGL
Weather: no significant weather observed at this time

METAR text: EBBE 181725Z 20008KT 9999 FEW240 11/01 Q1016 BLU BLU
Conditions at: EBBE (BEAUVECHAIN (BAF, BE) observed 1725 UTC 18 February 2019
Temperature: 11.0°C (52°F)
Dewpoint: 1.0°C (34°F) [RH = 50%]
Pressure (altimeter): 30.00 inches Hg (1016.0 mb)
Winds: from the SSW (200 degrees) at 9 MPH (8 knots; 4.1 m/s)
Visibility: 6 or more miles (10+ km)
Ceiling: at least 12,000 feet AGL
Clouds: few clouds at 24000 feet AGL
Weather: no significant weather observed at this time

METAR text: EBBE 181655Z 21008KT 9999 FEW240 12/02 Q1016 BLU BLU
Conditions at: EBBE (BEAUVECHAIN (BAF, BE) observed 1655 UTC 18 February 2019
Temperature: 12.0°C (54°F)
Dewpoint: 2.0°C (36°F) [RH = 50%]
Pressure (altimeter): 30.00 inches Hg (1016.0 mb)
Winds: from the SSW (210 degrees) at 9 MPH (8 knots; 4.1 m/s)
Visibility: 6 or more miles (10+ km)
Ceiling: at least 12,000 feet AGL
Clouds: few clouds at 24000 feet AGL
Weather: no significant weather observed at this time

METAR text: EBBE 181625Z 22008KT 9999 FEW240 13/01 Q1016 BLU BLU
Conditions at: EBBE (BEAUVECHAIN (BAF, BE) observed 1625 UTC 18 February 2019
Temperature: 13.0°C (55°F)
Dewpoint: 1.0°C (34°F) [RH = 44%]
Pressure (altimeter): 30.00 inches Hg (1016.0 mb)
Winds: from the SW (220 degrees) at 9 MPH (8 knots; 4.1 m/s)
Visibility: 6 or more miles (10+ km)
Ceiling: at least 12,000 feet AGL
Clouds: few clouds at 24000 feet AGL
Weather: no significant weather observed at this time

METAR text: EBBE 181555Z 21008KT 9999 FEW240 14/01 Q1015 BLU BLU
Conditions at: EBBE (BEAUVECHAIN (BAF, BE) observed 1555 UTC 18 February 2019
Temperature: 14.0°C (57°F)
Dewpoint: 1.0°C (34°F) [RH = 41%]
Pressure (altimeter): 29.97 inches Hg (1015.0 mb)
Winds: from the SSW (210 degrees) at 9 MPH (8 knots; 4.1 m/s)
Visibility: 6 or more miles (10+ km)
Ceiling: at least 12,000 feet AGL
Clouds: few clouds at 24000 feet AGL
Weather: no significant weather observed at this time

METAR text: EBBE 181525Z 19006KT 9999 FEW240 15/01 Q1015 BLU BLU
Conditions at: EBBE (BEAUVECHAIN (BAF, BE) observed 1525 UTC 18 February 2019
Temperature: 15.0°C (59°F)
Dewpoint: 1.0°C (34°F) [RH = 39%]
Pressure (altimeter): 29.97 inches Hg (1015.0 mb)
Winds: from the S (190 degrees) at 7 MPH (6 knots; 3.1 m/s)
Visibility: 6 or more miles (10+ km)
Ceiling: at least 12,000 feet AGL
Clouds: few clouds at 24000 feet AGL
Weather: no significant weather observed at this time

METAR text: EBBE 181455Z 20007KT 9999 FEW240 15/01 Q1015 BLU BLU
Conditions at: EBBE (BEAUVECHAIN (BAF, BE) observed 1455 UTC 18 February 2019
Temperature: 15.0°C (59°F)
Dewpoint: 1.0°C (34°F) [RH = 39%]
Pressure (altimeter): 29.97 inches Hg (1015.0 mb)
Winds: from the SSW (200 degrees) at 8 MPH (7 knots; 3.6 m/s)
Visibility: 6 or more miles (10+ km)
Ceiling: at least 12,000 feet AGL
Clouds: few clouds at 24000 feet AGL
Weather: no significant weather observed at this time

METAR text: EBBE 181425Z 19009KT 9999 FEW240 15/02 Q1016 BLU BLU
Conditions at: EBBE (BEAUVECHAIN (BAF, BE) observed 1425 UTC 18 February 2019
Temperature: 15.0°C (59°F)
Dewpoint: 2.0°C (36°F) [RH = 41%]
Pressure (altimeter): 30.00 inches Hg (1016.0 mb)
Winds: from the S (190 degrees) at 10 MPH (9 knots; 4.6 m/s)
Visibility: 6 or more miles (10+ km)
Ceiling: at least 12,000 feet AGL
Clouds: few clouds at 24000 feet AGL
Weather: no significant weather observed at this time

METAR text: EBBE 181355Z 19008KT 9999 FEW240 15/01 Q1016 BLU BLU
Conditions at: EBBE (BEAUVECHAIN (BAF, BE) observed 1355 UTC 18 February 2019
Temperature: 15.0°C (59°F)
Dewpoint: 1.0°C (34°F) [RH = 39%]
Pressure (altimeter): 30.00 inches Hg (1016.0 mb)
Winds: from the S (190 degrees) at 9 MPH (8 knots; 4.1 m/s)
Visibility: 6 or more miles (10+ km)
Ceiling: at least 12,000 feet AGL
Clouds: few clouds at 24000 feet AGL
Weather: no significant weather observed at this time

METAR text: EBBE 181325Z 21007KT 9999 FEW240 15/01 Q1016 BLU BLU
Conditions at: EBBE (BEAUVECHAIN (BAF, BE) observed 1325 UTC 18 February 2019
Temperature: 15.0°C (59°F)
Dewpoint: 1.0°C (34°F) [RH = 39%]
Pressure (altimeter): 30.00 inches Hg (1016.0 mb)
Winds: from the SSW (210 degrees) at 8 MPH (7 knots; 3.6 m/s)
Visibility: 6 or more miles (10+ km)
Ceiling: at least 12,000 feet AGL
Clouds: few clouds at 24000 feet AGL
Weather: no significant weather observed at this time

METAR text: EBBE 181255Z 20009KT 9999 FEW240 15/01 Q1016 BLU BLU
Conditions at: EBBE (BEAUVECHAIN (BAF, BE) observed 1255 UTC 18 February 2019
Temperature: 15.0°C (59°F)
Dewpoint: 1.0°C (34°F) [RH = 39%]
Pressure (altimeter): 30.00 inches Hg (1016.0 mb)
Winds: from the SSW (200 degrees) at 10 MPH (9 knots; 4.6 m/s)
Visibility: 6 or more miles (10+ km)
Ceiling: at least 12,000 feet AGL
Clouds: few clouds at 24000 feet AGL
Weather: no significant weather observed at this time

METAR text: EBBE 181225Z 18006KT 9999 FEW240 15/01 Q1017 BLU BLU
Conditions at: EBBE (BEAUVECHAIN (BAF, BE) observed 1225 UTC 18 February 2019
Temperature: 15.0°C (59°F)
Dewpoint: 1.0°C (34°F) [RH = 39%]
Pressure (altimeter): 30.03 inches Hg (1017.0 mb)
Winds: from the S (180 degrees) at 7 MPH (6 knots; 3.1 m/s)
Visibility: 6 or more miles (10+ km)
Ceiling: at least 12,000 feet AGL
Clouds: few clouds at 24000 feet AGL
Weather: no significant weather observed at this time

METAR text: EBBE 181155Z 19008KT 9999 FEW240 14/01 Q1017 BLU BLU
Conditions at: EBBE (BEAUVECHAIN (BAF, BE) observed 1155 UTC 18 February 2019
Temperature: 14.0°C (57°F)
Dewpoint: 1.0°C (34°F) [RH = 41%]
Pressure (altimeter): 30.03 inches Hg (1017.0 mb)
Winds: from the S (190 degrees) at 9 MPH (8 knots; 4.1 m/s)
Visibility: 6 or more miles (10+ km)
Ceiling: at least 12,000 feet AGL
Clouds: few clouds at 24000 feet AGL
Weather: no significant weather observed at this time

METAR text: EBBE 181125Z 19009KT 9999 FEW230 13/01 Q1017 BLU BLU
Conditions at: EBBE (BEAUVECHAIN (BAF, BE) observed 1125 UTC 18 February 2019
Temperature: 13.0°C (55°F)
Dewpoint: 1.0°C (34°F) [RH = 44%]
Pressure (altimeter): 30.03 inches Hg (1017.0 mb)
Winds: from the S (190 degrees) at 10 MPH (9 knots; 4.6 m/s)
Visibility: 6 or more miles (10+ km)
Ceiling: at least 12,000 feet AGL
Clouds: few clouds at 23000 feet AGL
Weather: no significant weather observed at this time

METAR text: EBBE 181055Z 18010KT 9999 FEW230 12/01 Q1018 BLU BLU
Conditions at: EBBE (BEAUVECHAIN (BAF, BE) observed 1055 UTC 18 February 2019
Temperature: 12.0°C (54°F)
Dewpoint: 1.0°C (34°F) [RH = 47%]
Pressure (altimeter): 30.06 inches Hg (1018.0 mb)
Winds: from the S (180 degrees) at 12 MPH (10 knots; 5.1 m/s)
Visibility: 6 or more miles (10+ km)
Ceiling: at least 12,000 feet AGL
Clouds: few clouds at 23000 feet AGL
Weather: no significant weather observed at this time

METAR text: EBBE 181025Z 20009KT 9999 FEW230 11/01 Q1018 BLU BLU
Conditions at: EBBE (BEAUVECHAIN (BAF, BE) observed 1025 UTC 18 February 2019
Temperature: 11.0°C (52°F)
Dewpoint: 1.0°C (34°F) [RH = 50%]
Pressure (altimeter): 30.06 inches Hg (1018.0 mb)
Winds: from the SSW (200 degrees) at 10 MPH (9 knots; 4.6 m/s)
Visibility: 6 or more miles (10+ km)
Ceiling: at least 12,000 feet AGL
Clouds: few clouds at 23000 feet AGL
Weather: no significant weather observed at this time

METAR text: EBBE 180955Z 19008KT 9999 FEW230 10/01 Q1018 BLU BLU
Conditions at: EBBE (BEAUVECHAIN (BAF, BE) observed 0955 UTC 18 February 2019
Temperature: 10.0°C (50°F)
Dewpoint: 1.0°C (34°F) [RH = 53%]
Pressure (altimeter): 30.06 inches Hg (1018.0 mb)
Winds: from the S (190 degrees) at 9 MPH (8 knots; 4.1 m/s)
Visibility: 6 or more miles (10+ km)
Ceiling: at least 12,000 feet AGL
Clouds: few clouds at 23000 feet AGL
Weather: no significant weather observed at this time

METAR text: EBBE 180925Z 18009KT 9999 FEW230 09/00 Q1018 BLU BLU
Conditions at: EBBE (BEAUVECHAIN (BAF, BE) observed 0925 UTC 18 February 2019
Temperature: 9.0°C (48°F)
Dewpoint: 0.0°C (32°F) [RH = 53%]
Pressure (altimeter): 30.06 inches Hg (1018.0 mb)
Winds: from the S (180 degrees) at 10 MPH (9 knots; 4.6 m/s)
Visibility: 6 or more miles (10+ km)
Ceiling: at least 12,000 feet AGL
Clouds: few clouds at 23000 feet AGL
Weather: no significant weather observed at this time

METAR text: EBBE 180855Z 19008KT 9999 FEW230 08/M00 Q1018 BLU BLU
Conditions at: EBBE (BEAUVECHAIN (BAF, BE) observed 0855 UTC 18 February 2019
Temperature: 8.0°C (46°F)
Dewpoint: 0.0°C (32°F) [RH = 57%]
Pressure (altimeter): 30.06 inches Hg (1018.0 mb)
Winds: from the S (190 degrees) at 9 MPH (8 knots; 4.1 m/s)
Visibility: 6 or more miles (10+ km)
Ceiling: at least 12,000 feet AGL
Clouds: few clouds at 23000 feet AGL
Weather: no significant weather observed at this time

METAR text: EBBE 180825Z 19008KT 9999 SKC 08/M01 Q1018 BLU BLU
Conditions at: EBBE (BEAUVECHAIN (BAF, BE) observed 0825 UTC 18 February 2019
Temperature: 8.0°C (46°F)
Dewpoint: -1.0°C (30°F) [RH = 53%]
Pressure (altimeter): 30.06 inches Hg (1018.0 mb)
Winds: from the S (190 degrees) at 9 MPH (8 knots; 4.1 m/s)
Visibility: 6 or more miles (10+ km)
Ceiling: at least 12,000 feet AGL
Clouds: clear skies
Weather: no significant weather observed at this time

METAR text: EBBE 180755Z 18009KT 9999 SKC 07/M01 Q1018 BLU BLU
Conditions at: EBBE (BEAUVECHAIN (BAF, BE) observed 0755 UTC 18 February 2019
Temperature: 7.0°C (45°F)
Dewpoint: -1.0°C (30°F) [RH = 57%]
Pressure (altimeter): 30.06 inches Hg (1018.0 mb)
Winds: from the S (180 degrees) at 10 MPH (9 knots; 4.6 m/s)
Visibility: 6 or more miles (10+ km)
Ceiling: at least 12,000 feet AGL
Clouds: clear skies
Weather: no significant weather observed at this time

METAR text: EBBE 180725Z 19004KT 9999 SKC 07/M02 Q1019 BLU BLU
Conditions at: EBBE (BEAUVECHAIN (BAF, BE) observed 0725 UTC 18 February 2019
Temperature: 7.0°C (45°F)
Dewpoint: -2.0°C (28°F) [RH = 53%]
Pressure (altimeter): 30.09 inches Hg (1019.0 mb)
Winds: from the S (190 degrees) at 5 MPH (4 knots; 2.1 m/s)
Visibility: 6 or more miles (10+ km)
Ceiling: at least 12,000 feet AGL
Clouds: clear skies
Weather: no significant weather observed at this time

METAR text: EBBE 180655Z 19004KT 9999 FEW230 07/M02 Q1019 BLU BLU
Conditions at: EBBE (BEAUVECHAIN (BAF, BE) observed 0655 UTC 18 February 2019
Temperature: 7.0°C (45°F)
Dewpoint: -2.0°C (28°F) [RH = 53%]
Pressure (altimeter): 30.09 inches Hg (1019.0 mb)
Winds: from the S (190 degrees) at 5 MPH (4 knots; 2.1 m/s)
Visibility: 6 or more miles (10+ km)
Ceiling: at least 12,000 feet AGL
Clouds: few clouds at 23000 feet AGL
Weather: no significant weather observed at this time

METAR text: EBBE 180606Z 19005KT 9999 FEW230 07/M02 Q1018 BLU BLU
Conditions at: EBBE (BEAUVECHAIN (BAF, BE) observed 0606 UTC 18 February 2019
Temperature: 7.0°C (45°F)
Dewpoint: -2.0°C (28°F) [RH = 53%]
Pressure (altimeter): 30.06 inches Hg (1018.0 mb)
Winds: from the S (190 degrees) at 6 MPH (5 knots; 2.6 m/s)
Visibility: 6 or more miles (10+ km)
Ceiling: at least 12,000 feet AGL
Clouds: few clouds at 23000 feet AGL
Weather: no significant weather observed at this time

METAR text: EBBE 180555Z AUTO 19005KT 9999 NCD 07/M02 Q1018 BLU
Conditions at: EBBE (BEAUVECHAIN (BAF, BE) observed 0555 UTC 18 February 2019
Temperature: 7.0°C (45°F)
Dewpoint: -2.0°C (28°F) [RH = 53%]
Pressure (altimeter): 30.06 inches Hg (1018.0 mb)
Winds: from the S (190 degrees) at 6 MPH (5 knots; 2.6 m/s)
Visibility: 6 or more miles (10+ km)
Ceiling: at least 12,000 feet AGL
Clouds: sky clear below 12,000 feet AGL
Weather: no significant weather observed at this time

METAR text: EBBE 180525Z AUTO 19006KT 9999 NCD 07/M02 Q1019 BLU
Conditions at: EBBE (BEAUVECHAIN (BAF, BE) observed 0525 UTC 18 February 2019
Temperature: 7.0°C (45°F)
Dewpoint: -2.0°C (28°F) [RH = 53%]
Pressure (altimeter): 30.09 inches Hg (1019.0 mb)
Winds: from the S (190 degrees) at 7 MPH (6 knots; 3.1 m/s)
Visibility: 6 or more miles (10+ km)
Ceiling: at least 12,000 feet AGL
Clouds: sky clear below 12,000 feet AGL
Weather: no significant weather observed at this time

METAR text: EBBE 180455Z AUTO 20005KT 9999 NCD 07/M02 Q1019 BLU
Conditions at: EBBE (BEAUVECHAIN (BAF, BE) observed 0455 UTC 18 February 2019
Temperature: 7.0°C (45°F)
Dewpoint: -2.0°C (28°F) [RH = 53%]
Pressure (altimeter): 30.09 inches Hg (1019.0 mb)
Winds: from the SSW (200 degrees) at 6 MPH (5 knots; 2.6 m/s)
Visibility: 6 or more miles (10+ km)
Ceiling: at least 12,000 feet AGL
Clouds: sky clear below 12,000 feet AGL
Weather: no significant weather observed at this time

METAR text: EBBE 180425Z AUTO 19005KT 9999 NCD 07/M02 Q1019 BLU
Conditions at: EBBE (BEAUVECHAIN (BAF, BE) observed 0425 UTC 18 February 2019
Temperature: 7.0°C (45°F)
Dewpoint: -2.0°C (28°F) [RH = 53%]
Pressure (altimeter): 30.09 inches Hg (1019.0 mb)
Winds: from the S (190 degrees) at 6 MPH (5 knots; 2.6 m/s)
Visibility: 6 or more miles (10+ km)
Ceiling: at least 12,000 feet AGL
Clouds: sky clear below 12,000 feet AGL
Weather: no significant weather observed at this time

METAR text: EBBE 180355Z AUTO 21007KT 9999 NCD 07/M02 Q1019 BLU
Conditions at: EBBE (BEAUVECHAIN (BAF, BE) observed 0355 UTC 18 February 2019
Temperature: 7.0°C (45°F)
Dewpoint: -2.0°C (28°F) [RH = 53%]
Pressure (altimeter): 30.09 inches Hg (1019.0 mb)
Winds: from the SSW (210 degrees) at 8 MPH (7 knots; 3.6 m/s)
Visibility: 6 or more miles (10+ km)
Ceiling: at least 12,000 feet AGL
Clouds: sky clear below 12,000 feet AGL
Weather: no significant weather observed at this time

METAR text: EBBE 180325Z AUTO 21008KT 9999 NCD 08/M03 Q1019 BLU
Conditions at: EBBE (BEAUVECHAIN (BAF, BE) observed 0325 UTC 18 February 2019
Temperature: 8.0°C (46°F)
Dewpoint: -3.0°C (27°F) [RH = 46%]
Pressure (altimeter): 30.09 inches Hg (1019.0 mb)
Winds: from the SSW (210 degrees) at 9 MPH (8 knots; 4.1 m/s)
Visibility: 6 or more miles (10+ km)
Ceiling: at least 12,000 feet AGL
Clouds: sky clear below 12,000 feet AGL
Weather: no significant weather observed at this time

METAR text: EBBE 180255Z AUTO 19004KT 9999 NCD 07/M03 Q1019 BLU
Conditions at: EBBE (BEAUVECHAIN (BAF, BE) observed 0255 UTC 18 February 2019
Temperature: 7.0°C (45°F)
Dewpoint: -3.0°C (27°F) [RH = 49%]
Pressure (altimeter): 30.09 inches Hg (1019.0 mb)
Winds: from the S (190 degrees) at 5 MPH (4 knots; 2.1 m/s)
Visibility: 6 or more miles (10+ km)
Ceiling: at least 12,000 feet AGL
Clouds: sky clear below 12,000 feet AGL
Weather: no significant weather observed at this time

METAR text: EBBE 180225Z AUTO 22004KT 9999 NCD 07/M03 Q1019 BLU
Conditions at: EBBE (BEAUVECHAIN (BAF, BE) observed 0225 UTC 18 February 2019
Temperature: 7.0°C (45°F)
Dewpoint: -3.0°C (27°F) [RH = 49%]
Pressure (altimeter): 30.09 inches Hg (1019.0 mb)
Winds: from the SW (220 degrees) at 5 MPH (4 knots; 2.1 m/s)
Visibility: 6 or more miles (10+ km)
Ceiling: at least 12,000 feet AGL
Clouds: sky clear below 12,000 feet AGL
Weather: no significant weather observed at this time

METAR text: EBBE 180155Z AUTO 22005KT 9999 NCD 08/M03 Q1019 BLU
Conditions at: EBBE (BEAUVECHAIN (BAF, BE) observed 0155 UTC 18 February 2019
Temperature: 8.0°C (46°F)
Dewpoint: -3.0°C (27°F) [RH = 46%]
Pressure (altimeter): 30.09 inches Hg (1019.0 mb)
Winds: from the SW (220 degrees) at 6 MPH (5 knots; 2.6 m/s)
Visibility: 6 or more miles (10+ km)
Ceiling: at least 12,000 feet AGL
Clouds: sky clear below 12,000 feet AGL
Weather: no significant weather observed at this time

METAR text: EBBE 180125Z AUTO 20006KT 9999 NCD 08/M03 Q1019 BLU
Conditions at: EBBE (BEAUVECHAIN (BAF, BE) observed 0125 UTC 18 February 2019
Temperature: 8.0°C (46°F)
Dewpoint: -3.0°C (27°F) [RH = 46%]
Pressure (altimeter): 30.09 inches Hg (1019.0 mb)
Winds: from the SSW (200 degrees) at 7 MPH (6 knots; 3.1 m/s)
Visibility: 6 or more miles (10+ km)
Ceiling: at least 12,000 feet AGL
Clouds: sky clear below 12,000 feet AGL
Weather: no significant weather observed at this time

METAR text: EBBE 180055Z AUTO 20005KT 9999 NCD 09/M03 Q1019 BLU
Conditions at: EBBE (BEAUVECHAIN (BAF, BE) observed 0055 UTC 18 February 2019
Temperature: 9.0°C (48°F)
Dewpoint: -3.0°C (27°F) [RH = 43%]
Pressure (altimeter): 30.09 inches Hg (1019.0 mb)
Winds: from the SSW (200 degrees) at 6 MPH (5 knots; 2.6 m/s)
Visibility: 6 or more miles (10+ km)
Ceiling: at least 12,000 feet AGL
Clouds: sky clear below 12,000 feet AGL
Weather: no significant weather observed at this time

METAR text: EBBE 180025Z AUTO 19006KT 9999 NCD 09/M02 Q1019 BLU
Conditions at: EBBE (BEAUVECHAIN (BAF, BE) observed 0025 UTC 18 February 2019
Temperature: 9.0°C (48°F)
Dewpoint: -2.0°C (28°F) [RH = 46%]
Pressure (altimeter): 30.09 inches Hg (1019.0 mb)
Winds: from the S (190 degrees) at 7 MPH (6 knots; 3.1 m/s)
Visibility: 6 or more miles (10+ km)
Ceiling: at least 12,000 feet AGL
Clouds: sky clear below 12,000 feet AGL
Weather: no significant weather observed at this time

METAR text: EBBE 172355Z AUTO 19006KT 9999 NCD 09/M02 Q1019 BLU
Conditions at: EBBE (BEAUVECHAIN (BAF, BE) observed 2355 UTC 17 February 2019
Temperature: 9.0°C (48°F)
Dewpoint: -2.0°C (28°F) [RH = 46%]
Pressure (altimeter): 30.09 inches Hg (1019.0 mb)
Winds: from the S (190 degrees) at 7 MPH (6 knots; 3.1 m/s)
Visibility: 6 or more miles (10+ km)
Ceiling: at least 12,000 feet AGL
Clouds: sky clear below 12,000 feet AGL
Weather: no significant weather observed at this time

METAR text: EBBE 172325Z AUTO 21006KT 9999 NCD 09/M02 Q1019 BLU
Conditions at: EBBE (BEAUVECHAIN (BAF, BE) observed 2325 UTC 17 February 2019
Temperature: 9.0°C (48°F)
Dewpoint: -2.0°C (28°F) [RH = 46%]
Pressure (altimeter): 30.09 inches Hg (1019.0 mb)
Winds: from the SSW (210 degrees) at 7 MPH (6 knots; 3.1 m/s)
Visibility: 6 or more miles (10+ km)
Ceiling: at least 12,000 feet AGL
Clouds: sky clear below 12,000 feet AGL
Weather: no significant weather observed at this time

METAR text: EBBE 172255Z AUTO 20006KT 9999 NCD 09/M02 Q1019 BLU
Conditions at: EBBE (BEAUVECHAIN (BAF, BE) observed 2255 UTC 17 February 2019
Temperature: 9.0°C (48°F)
Dewpoint: -2.0°C (28°F) [RH = 46%]
Pressure (altimeter): 30.09 inches Hg (1019.0 mb)
Winds: from the SSW (200 degrees) at 7 MPH (6 knots; 3.1 m/s)
Visibility: 6 or more miles (10+ km)
Ceiling: at least 12,000 feet AGL
Clouds: sky clear below 12,000 feet AGL
Weather: no significant weather observed at this time

METAR text: EBBE 172225Z AUTO 20005KT 9999 NCD 10/M02 Q1019 BLU
Conditions at: EBBE (BEAUVECHAIN (BAF, BE) observed 2225 UTC 17 February 2019
Temperature: 10.0°C (50°F)
Dewpoint: -2.0°C (28°F) [RH = 43%]
Pressure (altimeter): 30.09 inches Hg (1019.0 mb)
Winds: from the SSW (200 degrees) at 6 MPH (5 knots; 2.6 m/s)
Visibility: 6 or more miles (10+ km)
Ceiling: at least 12,000 feet AGL
Clouds: sky clear below 12,000 feet AGL
Weather: no significant weather observed at this time

METAR text: EBBE 172155Z AUTO 21004KT 9999 NCD 10/M02 Q1020 BLU
Conditions at: EBBE (BEAUVECHAIN (BAF, BE) observed 2155 UTC 17 February 2019
Temperature: 10.0°C (50°F)
Dewpoint: -2.0°C (28°F) [RH = 43%]
Pressure (altimeter): 30.12 inches Hg (1020.0 mb)
Winds: from the SSW (210 degrees) at 5 MPH (4 knots; 2.1 m/s)
Visibility: 6 or more miles (10+ km)
Ceiling: at least 12,000 feet AGL
Clouds: sky clear below 12,000 feet AGL
Weather: no significant weather observed at this time

METAR text: EBBE 172125Z AUTO VRB02KT 9999 NCD 10/M02 Q1020 BLU
Conditions at: EBBE (BEAUVECHAIN (BAF, BE) observed 2125 UTC 17 February 2019
Temperature: 10.0°C (50°F)
Dewpoint: -2.0°C (28°F) [RH = 43%]
Pressure (altimeter): 30.12 inches Hg (1020.0 mb)
Winds: variable direction winds at 2 MPH (2 knots; 1.0 m/s)
Visibility: 6 or more miles (10+ km)
Ceiling: at least 12,000 feet AGL
Clouds: sky clear below 12,000 feet AGL
Weather: no significant weather observed at this time

METAR text: EBBE 172055Z AUTO 20008KT 9999 NCD 10/M02 Q1020 BLU
Conditions at: EBBE (BEAUVECHAIN (BAF, BE) observed 2055 UTC 17 February 2019
Temperature: 10.0°C (50°F)
Dewpoint: -2.0°C (28°F) [RH = 43%]
Pressure (altimeter): 30.12 inches Hg (1020.0 mb)
Winds: from the SSW (200 degrees) at 9 MPH (8 knots; 4.1 m/s)
Visibility: 6 or more miles (10+ km)
Ceiling: at least 12,000 feet AGL
Clouds: sky clear below 12,000 feet AGL
Weather: no significant weather observed at this time

METAR text: EBBE 172025Z AUTO 19007KT 9999 NCD 10/M02 Q1020 BLU
Conditions at: EBBE (BEAUVECHAIN (BAF, BE) observed 2025 UTC 17 February 2019
Temperature: 10.0°C (50°F)
Dewpoint: -2.0°C (28°F) [RH = 43%]
Pressure (altimeter): 30.12 inches Hg (1020.0 mb)
Winds: from the S (190 degrees) at 8 MPH (7 knots; 3.6 m/s)
Visibility: 6 or more miles (10+ km)
Ceiling: at least 12,000 feet AGL
Clouds: sky clear below 12,000 feet AGL
Weather: no significant weather observed at this time

METAR text: EBBE 171955Z AUTO 19009KT 9999 NCD 11/M02 Q1019 BLU
Conditions at: EBBE (BEAUVECHAIN (BAF, BE) observed 1955 UTC 17 February 2019
Temperature: 11.0°C (52°F)
Dewpoint: -2.0°C (28°F) [RH = 40%]
Pressure (altimeter): 30.09 inches Hg (1019.0 mb)
Winds: from the S (190 degrees) at 10 MPH (9 knots; 4.6 m/s)
Visibility: 6 or more miles (10+ km)
Ceiling: at least 12,000 feet AGL
Clouds: sky clear below 12,000 feet AGL
Weather: no significant weather observed at this time

METAR text: EBBE 171925Z AUTO 19008KT 9999 NCD 11/M02 Q1019 BLU
Conditions at: EBBE (BEAUVECHAIN (BAF, BE) observed 1925 UTC 17 February 2019
Temperature: 11.0°C (52°F)
Dewpoint: -2.0°C (28°F) [RH = 40%]
Pressure (altimeter): 30.09 inches Hg (1019.0 mb)
Winds: from the S (190 degrees) at 9 MPH (8 knots; 4.1 m/s)
Visibility: 6 or more miles (10+ km)
Ceiling: at least 12,000 feet AGL
Clouds: sky clear below 12,000 feet AGL
Weather: no significant weather observed at this time

METAR text: EBBE 171855Z AUTO 19007KT 9999 NCD 11/M02 Q1019 BLU
Conditions at: EBBE (BEAUVECHAIN (BAF, BE) observed 1855 UTC 17 February 2019
Temperature: 11.0°C (52°F)
Dewpoint: -2.0°C (28°F) [RH = 40%]
Pressure (altimeter): 30.09 inches Hg (1019.0 mb)
Winds: from the S (190 degrees) at 8 MPH (7 knots; 3.6 m/s)
Visibility: 6 or more miles (10+ km)
Ceiling: at least 12,000 feet AGL
Clouds: sky clear below 12,000 feet AGL
Weather: no significant weather observed at this time

Forecast for: EBBE (BEAUVECHAIN (BAF, BE)
Text: TAF EBBE 190541Z 1907/1916 25010KT 9999 BKN012
Forecast period: 0700 to 0800 UTC 19 February 2019
Forecast type: FROM: standard forecast or significant change
Winds: from the WSW (250 degrees) at 12 MPH (10 knots; 5.1 m/s)
Visibility: 6 or more miles 10+ km)
Ceiling: 1200 feet AGL
Clouds: broken clouds at 1200 feet AGL
Weather: no significant weather forecast for this period
Text: PROB30
Forecast period: 0700 to 0800 UTC 19 February 2019
Forecast type: TEMPORARY: The following changes expected for less than half the time period
Visibility: missing
Ceiling: 1000 feet AGL
Clouds: scattered clouds at 600 feet AGL
broken clouds at 1000 feet AGL
Weather: no significant weather forecast for this period
Text: TEMPO 1907/1908 SCT006 BKN010
Forecast period: 0800 to 1600 UTC 19 February 2019
Forecast type: BECOMING: Conditions expected to become as follows by 1000 UTC 19 February 2019
Winds: from the WSW (250 degrees) at 15 MPH (13 knots; 6.7 m/s)
Visibility: 6 or more miles 10+ km)
Ceiling: at least 12,000 feet AGL
Clouds: few clouds at 1500 feet AGL
scattered clouds at 2500 feet AGL
Weather: no significant weather forecast for this period
Text: BECMG 1908/1910 25013KT FEW015 SCT025
Forecast period: 0800 to 1100 UTC 19 February 2019
Forecast type: TEMPORARY: The following changes expected for less than half the time period
Visibility: missing
Ceiling: at least 12,000 feet AGL
Clouds: scattered clouds at 1500 feet AGL
Weather: no significant weather forecast for this period